sensor_id;sensor_type;location;lat;lon;timestamp;temperature;humidity
34460;DHT22;20704;51.260;22.558;2024-02-26T00:01:54;10.00;99.90
34460;DHT22;20704;51.260;22.558;2024-02-26T00:03:56;9.90;99.90
34460;DHT22;20704;51.260;22.558;2024-02-26T00:06:02;9.90;99.90
34460;DHT22;20704;51.260;22.558;2024-02-26T00:08:05;9.90;31.90
34460;DHT22;20704;51.260;22.558;2024-02-26T00:10:08;9.90;99.90
34460;DHT22;20704;51.260;22.558;2024-02-26T00:12:10;9.80;99.90
34460;DHT22;20704;51.260;22.558;2024-02-26T00:14:13;9.80;99.90
34460;DHT22;20704;51.260;22.558;2024-02-26T00:18:18;9.80;99.90
34460;DHT22;20704;51.260;22.558;2024-02-26T00:20:21;9.80;99.90
34460;DHT22;20704;51.260;22.558;2024-02-26T00:22:23;9.80;1.00
34460;DHT22;20704;51.260;22.558;2024-02-26T00:24:26;9.80;1.00
34460;DHT22;20704;51.260;22.558;2024-02-26T00:26:28;9.80;1.00
34460;DHT22;20704;51.260;22.558;2024-02-26T00:28:31;9.80;1.00
34460;DHT22;20704;51.260;22.558;2024-02-26T00:32:36;9.80;99.90
34460;DHT22;20704;51.260;22.558;2024-02-26T00:34:38;9.80;99.90
34460;DHT22;20704;51.260;22.558;2024-02-26T00:36:41;9.80;99.90
34460;DHT22;20704;51.260;22.558;2024-02-26T00:38:43;9.80;99.90
34460;DHT22;20704;51.260;22.558;2024-02-26T00:40:47;10.80;1.00
34460;DHT22;20704;51.260;22.558;2024-02-26T00:42:49;9.70;1.00
34460;DHT22;20704;51.260;22.558;2024-02-26T00:44:52;9.80;42.50
34460;DHT22;20704;51.260;22.558;2024-02-26T00:46:54;9.70;99.90
34460;DHT22;20704;51.260;22.558;2024-02-26T00:50:59;9.70;99.90
34460;DHT22;20704;51.260;22.558;2024-02-26T00:53:02;9.70;1.00
34460;DHT22;20704;51.260;22.558;2024-02-26T00:55:05;9.80;11.20
34460;DHT22;20704;51.260;22.558;2024-02-26T00:57:08;9.60;1.00
34460;DHT22;20704;51.260;22.558;2024-02-26T00:59:10;9.60;96.60
34460;DHT22;20704;51.260;22.558;2024-02-26T01:01:13;9.60;99.90
34460;DHT22;20704;51.260;22.558;2024-02-26T01:03:15;9.80;99.90
34460;DHT22;20704;51.260;22.558;2024-02-26T01:05:18;9.60;99.90
34460;DHT22;20704;51.260;22.558;2024-02-26T01:07:20;9.60;99.90
34460;DHT22;20704;51.260;22.558;2024-02-26T01:09:23;9.60;99.90
34460;DHT22;20704;51.260;22.558;2024-02-26T01:11:26;9.60;99.90
34460;DHT22;20704;51.260;22.558;2024-02-26T01:13:28;9.50;99.90
34460;DHT22;20704;51.260;22.558;2024-02-26T01:15:31;9.50;99.90
34460;DHT22;20704;51.260;22.558;2024-02-26T01:17:34;9.50;99.90
34460;DHT22;20704;51.260;22.558;2024-02-26T01:19:36;9.50;99.90
34460;DHT22;20704;51.260;22.558;2024-02-26T01:21:38;9.50;99.90
34460;DHT22;20704;51.260;22.558;2024-02-26T01:23:41;9.40;99.90
34460;DHT22;20704;51.260;22.558;2024-02-26T01:25:44;9.50;99.90
34460;DHT22;20704;51.260;22.558;2024-02-26T01:27:47;9.50;99.90
34460;DHT22;20704;51.260;22.558;2024-02-26T01:29:49;9.50;99.90
34460;DHT22;20704;51.260;22.558;2024-02-26T01:31:51;9.40;99.90
34460;DHT22;20704;51.260;22.558;2024-02-26T01:33:54;9.40;1.00
34460;DHT22;20704;51.260;22.558;2024-02-26T01:35:57;9.40;1.00
34460;DHT22;20704;51.260;22.558;2024-02-26T01:37:59;9.50;1.00
34460;DHT22;20704;51.260;22.558;2024-02-26T01:40:02;9.50;1.00
34460;DHT22;20704;51.260;22.558;2024-02-26T01:42:06;9.40;1.00
34460;DHT22;20704;51.260;22.558;2024-02-26T01:44:12;9.40;1.00
34460;DHT22;20704;51.260;22.558;2024-02-26T01:46:16;9.40;1.00
34460;DHT22;20704;51.260;22.558;2024-02-26T01:48:19;9.40;1.00
34460;DHT22;20704;51.260;22.558;2024-02-26T01:50:22;9.40;1.00
34460;DHT22;20704;51.260;22.558;2024-02-26T01:52:24;9.40;1.00
34460;DHT22;20704;51.260;22.558;2024-02-26T01:54:27;9.50;1.00
34460;DHT22;20704;51.260;22.558;2024-02-26T01:56:30;9.50;1.00
34460;DHT22;20704;51.260;22.558;2024-02-26T01:58:35;9.50;1.00
34460;DHT22;20704;51.260;22.558;2024-02-26T02:00:38;9.50;1.00
34460;DHT22;20704;51.260;22.558;2024-02-26T02:02:41;9.50;1.00
34460;DHT22;20704;51.260;22.558;2024-02-26T02:04:44;9.50;1.00
34460;DHT22;20704;51.260;22.558;2024-02-26T02:06:47;9.50;1.00
34460;DHT22;20704;51.260;22.558;2024-02-26T02:08:49;9.40;1.00
34460;DHT22;20704;51.260;22.558;2024-02-26T02:10:52;9.50;1.00
34460;DHT22;20704;51.260;22.558;2024-02-26T02:12:54;9.50;1.00
34460;DHT22;20704;51.260;22.558;2024-02-26T02:17:00;9.40;1.00
34460;DHT22;20704;51.260;22.558;2024-02-26T02:19:02;9.40;1.00
34460;DHT22;20704;51.260;22.558;2024-02-26T02:21:05;9.50;1.00
34460;DHT22;20704;51.260;22.558;2024-02-26T02:23:07;9.30;1.00
34460;DHT22;20704;51.260;22.558;2024-02-26T02:27:12;9.30;1.00
34460;DHT22;20704;51.260;22.558;2024-02-26T02:29:15;9.10;1.00
34460;DHT22;20704;51.260;22.558;2024-02-26T02:31:17;9.30;1.00
34460;DHT22;20704;51.260;22.558;2024-02-26T02:33:20;9.30;1.00
34460;DHT22;20704;51.260;22.558;2024-02-26T02:35:23;9.30;1.00
34460;DHT22;20704;51.260;22.558;2024-02-26T02:37:25;9.30;6.80
34460;DHT22;20704;51.260;22.558;2024-02-26T02:39:27;9.20;7.60
34460;DHT22;20704;51.260;22.558;2024-02-26T02:41:30;9.20;17.80
34460;DHT22;20704;51.260;22.558;2024-02-26T02:43:32;9.20;25.30
34460;DHT22;20704;51.260;22.558;2024-02-26T02:45:34;9.20;48.50
34460;DHT22;20704;51.260;22.558;2024-02-26T02:47:37;9.20;61.80
34460;DHT22;20704;51.260;22.558;2024-02-26T02:49:40;9.20;71.80
34460;DHT22;20704;51.260;22.558;2024-02-26T02:51:42;9.20;91.40
34460;DHT22;20704;51.260;22.558;2024-02-26T02:53:44;9.10;99.90
34460;DHT22;20704;51.260;22.558;2024-02-26T02:55:47;9.10;99.90
34460;DHT22;20704;51.260;22.558;2024-02-26T02:57:49;9.10;99.90
34460;DHT22;20704;51.260;22.558;2024-02-26T02:59:52;9.10;99.90
34460;DHT22;20704;51.260;22.558;2024-02-26T03:01:54;9.20;99.90
34460;DHT22;20704;51.260;22.558;2024-02-26T03:03:56;9.10;99.90
34460;DHT22;20704;51.260;22.558;2024-02-26T03:08:02;9.10;99.90
34460;DHT22;20704;51.260;22.558;2024-02-26T03:10:04;9.10;99.90
34460;DHT22;20704;51.260;22.558;2024-02-26T03:12:07;9.10;99.90
34460;DHT22;20704;51.260;22.558;2024-02-26T03:14:09;9.10;99.90
34460;DHT22;20704;51.260;22.558;2024-02-26T03:16:12;9.10;99.90
34460;DHT22;20704;51.260;22.558;2024-02-26T03:18:14;9.10;99.90
34460;DHT22;20704;51.260;22.558;2024-02-26T03:20:17;9.10;99.90
34460;DHT22;20704;51.260;22.558;2024-02-26T03:22:21;9.00;99.90
34460;DHT22;20704;51.260;22.558;2024-02-26T03:24:24;9.00;99.90
34460;DHT22;20704;51.260;22.558;2024-02-26T03:26:26;9.00;99.90
34460;DHT22;20704;51.260;22.558;2024-02-26T03:28:29;9.00;99.90
34460;DHT22;20704;51.260;22.558;2024-02-26T03:30:31;9.00;99.90
34460;DHT22;20704;51.260;22.558;2024-02-26T03:34:37;9.00;99.90
34460;DHT22;20704;51.260;22.558;2024-02-26T03:36:42;9.00;99.90
34460;DHT22;20704;51.260;22.558;2024-02-26T03:38:44;9.00;99.90
34460;DHT22;20704;51.260;22.558;2024-02-26T03:40:46;9.00;99.90
34460;DHT22;20704;51.260;22.558;2024-02-26T03:42:49;9.00;99.90
34460;DHT22;20704;51.260;22.558;2024-02-26T03:44:51;9.00;99.90
34460;DHT22;20704;51.260;22.558;2024-02-26T03:48:56;9.00;99.90
34460;DHT22;20704;51.260;22.558;2024-02-26T03:50:59;9.00;99.90
34460;DHT22;20704;51.260;22.558;2024-02-26T03:55:04;9.10;99.90
34460;DHT22;20704;51.260;22.558;2024-02-26T03:57:07;8.90;99.90
34460;DHT22;20704;51.260;22.558;2024-02-26T03:59:09;8.90;99.90
34460;DHT22;20704;51.260;22.558;2024-02-26T04:01:11;9.00;99.90
34460;DHT22;20704;51.260;22.558;2024-02-26T04:03:14;9.00;99.90
34460;DHT22;20704;51.260;22.558;2024-02-26T04:05:17;9.00;99.90
34460;DHT22;20704;51.260;22.558;2024-02-26T04:07:19;8.90;99.90
34460;DHT22;20704;51.260;22.558;2024-02-26T04:09:21;9.00;99.90
34460;DHT22;20704;51.260;22.558;2024-02-26T04:11:24;8.90;99.90
34460;DHT22;20704;51.260;22.558;2024-02-26T04:13:26;8.90;99.90
34460;DHT22;20704;51.260;22.558;2024-02-26T04:15:29;9.00;99.90
34460;DHT22;20704;51.260;22.558;2024-02-26T04:17:31;9.00;99.90
34460;DHT22;20704;51.260;22.558;2024-02-26T04:19:33;9.00;99.90
34460;DHT22;20704;51.260;22.558;2024-02-26T04:21:37;9.00;99.90
34460;DHT22;20704;51.260;22.558;2024-02-26T04:23:39;9.10;99.90
34460;DHT22;20704;51.260;22.558;2024-02-26T04:25:41;9.10;99.90
34460;DHT22;20704;51.260;22.558;2024-02-26T04:27:44;9.10;99.90
34460;DHT22;20704;51.260;22.558;2024-02-26T04:29:47;9.10;99.90
34460;DHT22;20704;51.260;22.558;2024-02-26T04:31:49;9.10;99.90
34460;DHT22;20704;51.260;22.558;2024-02-26T04:33:51;9.10;99.90
34460;DHT22;20704;51.260;22.558;2024-02-26T04:35:54;9.10;99.90
34460;DHT22;20704;51.260;22.558;2024-02-26T04:37:56;9.10;99.90
34460;DHT22;20704;51.260;22.558;2024-02-26T04:40:00;9.10;99.90
34460;DHT22;20704;51.260;22.558;2024-02-26T04:42:03;9.40;99.90
34460;DHT22;20704;51.260;22.558;2024-02-26T04:44:06;9.10;99.90
34460;DHT22;20704;51.260;22.558;2024-02-26T04:48:11;9.10;99.90
34460;DHT22;20704;51.260;22.558;2024-02-26T04:50:14;9.10;99.90
34460;DHT22;20704;51.260;22.558;2024-02-26T04:52:16;9.30;99.90
34460;DHT22;20704;51.260;22.558;2024-02-26T04:54:20;9.10;99.90
34460;DHT22;20704;51.260;22.558;2024-02-26T04:56:22;9.10;99.90
34460;DHT22;20704;51.260;22.558;2024-02-26T04:58:25;9.10;99.90
34460;DHT22;20704;51.260;22.558;2024-02-26T05:00:27;9.10;99.90
34460;DHT22;20704;51.260;22.558;2024-02-26T05:02:30;9.10;99.90
34460;DHT22;20704;51.260;22.558;2024-02-26T05:04:34;9.10;99.90
34460;DHT22;20704;51.260;22.558;2024-02-26T05:06:37;9.10;99.90
34460;DHT22;20704;51.260;22.558;2024-02-26T05:08:39;9.10;99.90
34460;DHT22;20704;51.260;22.558;2024-02-26T05:10:42;9.20;99.90
34460;DHT22;20704;51.260;22.558;2024-02-26T05:12:47;9.20;99.90
34460;DHT22;20704;51.260;22.558;2024-02-26T05:14:50;9.10;99.90
34460;DHT22;20704;51.260;22.558;2024-02-26T05:16:52;9.10;99.90
34460;DHT22;20704;51.260;22.558;2024-02-26T05:18:55;9.00;99.90
34460;DHT22;20704;51.260;22.558;2024-02-26T05:20:57;9.00;99.90
34460;DHT22;20704;51.260;22.558;2024-02-26T05:23:00;9.10;99.90
34460;DHT22;20704;51.260;22.558;2024-02-26T05:25:03;9.00;99.90
34460;DHT22;20704;51.260;22.558;2024-02-26T05:27:05;9.00;99.90
34460;DHT22;20704;51.260;22.558;2024-02-26T05:29:08;9.00;99.90
34460;DHT22;20704;51.260;22.558;2024-02-26T05:31:13;9.10;99.90
34460;DHT22;20704;51.260;22.558;2024-02-26T05:33:15;9.10;99.90
34460;DHT22;20704;51.260;22.558;2024-02-26T05:35:20;9.10;99.90
34460;DHT22;20704;51.260;22.558;2024-02-26T05:37:22;9.00;99.90
34460;DHT22;20704;51.260;22.558;2024-02-26T05:39:25;9.10;99.90
34460;DHT22;20704;51.260;22.558;2024-02-26T05:41:27;9.10;99.90
34460;DHT22;20704;51.260;22.558;2024-02-26T05:43:29;9.10;99.90
34460;DHT22;20704;51.260;22.558;2024-02-26T05:47:35;9.10;99.90
34460;DHT22;20704;51.260;22.558;2024-02-26T05:49:38;9.00;99.90
34460;DHT22;20704;51.260;22.558;2024-02-26T05:51:40;9.00;99.90
34460;DHT22;20704;51.260;22.558;2024-02-26T05:53:43;9.10;99.90
34460;DHT22;20704;51.260;22.558;2024-02-26T05:55:45;9.10;99.90
34460;DHT22;20704;51.260;22.558;2024-02-26T05:57:48;9.00;99.90
34460;DHT22;20704;51.260;22.558;2024-02-26T05:59:51;9.00;99.90
34460;DHT22;20704;51.260;22.558;2024-02-26T06:01:54;9.00;99.90
34460;DHT22;20704;51.260;22.558;2024-02-26T06:03:56;9.00;99.90
34460;DHT22;20704;51.260;22.558;2024-02-26T06:05:58;8.80;99.90
34460;DHT22;20704;51.260;22.558;2024-02-26T06:08:01;8.90;99.90
34460;DHT22;20704;51.260;22.558;2024-02-26T06:10:05;9.00;99.90
34460;DHT22;20704;51.260;22.558;2024-02-26T06:12:08;8.90;99.90
34460;DHT22;20704;51.260;22.558;2024-02-26T06:14:10;8.90;99.90
34460;DHT22;20704;51.260;22.558;2024-02-26T06:16:15;8.90;99.90
34460;DHT22;20704;51.260;22.558;2024-02-26T06:18:17;8.90;99.90
34460;DHT22;20704;51.260;22.558;2024-02-26T06:20:20;8.90;99.90
34460;DHT22;20704;51.260;22.558;2024-02-26T06:22:22;8.90;99.90
34460;DHT22;20704;51.260;22.558;2024-02-26T06:24:24;8.90;99.90
34460;DHT22;20704;51.260;22.558;2024-02-26T06:26:27;8.90;99.90
34460;DHT22;20704;51.260;22.558;2024-02-26T06:28:31;8.90;99.90
34460;DHT22;20704;51.260;22.558;2024-02-26T06:32:38;9.00;99.90
34460;DHT22;20704;51.260;22.558;2024-02-26T06:34:41;9.00;99.90
34460;DHT22;20704;51.260;22.558;2024-02-26T06:38:46;9.00;99.90
34460;DHT22;20704;51.260;22.558;2024-02-26T06:42:51;9.00;99.90
34460;DHT22;20704;51.260;22.558;2024-02-26T06:44:54;9.00;99.90
34460;DHT22;20704;51.260;22.558;2024-02-26T06:46:56;9.00;99.90
34460;DHT22;20704;51.260;22.558;2024-02-26T06:48:58;9.00;99.90
34460;DHT22;20704;51.260;22.558;2024-02-26T06:51:02;9.40;99.90
34460;DHT22;20704;51.260;22.558;2024-02-26T06:55:09;9.10;99.90
34460;DHT22;20704;51.260;22.558;2024-02-26T06:57:12;9.20;99.90
34460;DHT22;20704;51.260;22.558;2024-02-26T06:59:14;9.20;99.90
34460;DHT22;20704;51.260;22.558;2024-02-26T07:01:17;9.20;99.90
34460;DHT22;20704;51.260;22.558;2024-02-26T07:03:20;9.20;99.90
34460;DHT22;20704;51.260;22.558;2024-02-26T07:07:28;9.20;99.90
34460;DHT22;20704;51.260;22.558;2024-02-26T07:11:33;9.30;99.90
34460;DHT22;20704;51.260;22.558;2024-02-26T07:13:35;9.20;99.90
34460;DHT22;20704;51.260;22.558;2024-02-26T07:17:40;9.20;99.90
34460;DHT22;20704;51.260;22.558;2024-02-26T07:19:50;9.20;99.90
34460;DHT22;20704;51.260;22.558;2024-02-26T07:23:55;9.20;99.90
34460;DHT22;20704;51.260;22.558;2024-02-26T07:25:57;9.20;99.90
34460;DHT22;20704;51.260;22.558;2024-02-26T07:30:03;9.50;99.90
34460;DHT22;20704;51.260;22.558;2024-02-26T07:32:06;9.60;99.90
34460;DHT22;20704;51.260;22.558;2024-02-26T07:34:08;9.70;99.90
34460;DHT22;20704;51.260;22.558;2024-02-26T07:36:11;9.70;99.90
34460;DHT22;20704;51.260;22.558;2024-02-26T07:38:13;9.70;35.90
34460;DHT22;20704;51.260;22.558;2024-02-26T07:40:32;9.80;1.00
34460;DHT22;20704;51.260;22.558;2024-02-26T07:44:37;9.90;1.00
34460;DHT22;20704;51.260;22.558;2024-02-26T07:46:40;9.90;1.00
34460;DHT22;20704;51.260;22.558;2024-02-26T07:48:42;10.00;1.00
34460;DHT22;20704;51.260;22.558;2024-02-26T07:50:45;9.90;1.00
34460;DHT22;20704;51.260;22.558;2024-02-26T07:52:47;9.90;1.00
34460;DHT22;20704;51.260;22.558;2024-02-26T07:56:52;9.80;1.00
34460;DHT22;20704;51.260;22.558;2024-02-26T07:58:54;9.80;1.00
34460;DHT22;20704;51.260;22.558;2024-02-26T08:00:57;9.80;1.00
34460;DHT22;20704;51.260;22.558;2024-02-26T08:03:00;9.90;1.00
34460;DHT22;20704;51.260;22.558;2024-02-26T08:05:04;10.10;1.00
34460;DHT22;20704;51.260;22.558;2024-02-26T08:07:06;10.00;1.00
34460;DHT22;20704;51.260;22.558;2024-02-26T08:09:09;10.30;1.00
34460;DHT22;20704;51.260;22.558;2024-02-26T08:11:14;10.30;99.90
34460;DHT22;20704;51.260;22.558;2024-02-26T08:15:20;10.40;99.90
34460;DHT22;20704;51.260;22.558;2024-02-26T08:19:26;10.30;99.90
34460;DHT22;20704;51.260;22.558;2024-02-26T08:21:29;10.20;99.90
34460;DHT22;20704;51.260;22.558;2024-02-26T08:23:32;10.20;99.90
34460;DHT22;20704;51.260;22.558;2024-02-26T08:25:34;10.20;99.90
34460;DHT22;20704;51.260;22.558;2024-02-26T08:31:42;10.10;99.90
34460;DHT22;20704;51.260;22.558;2024-02-26T08:33:45;10.00;99.90
34460;DHT22;20704;51.260;22.558;2024-02-26T08:39:53;9.90;99.90
34460;DHT22;20704;51.260;22.558;2024-02-26T08:41:56;10.40;1.00
34460;DHT22;20704;51.260;22.558;2024-02-26T08:43:58;10.00;1.00
34460;DHT22;20704;51.260;22.558;2024-02-26T08:46:00;10.10;99.90
34460;DHT22;20704;51.260;22.558;2024-02-26T08:50:06;10.30;99.90
34460;DHT22;20704;51.260;22.558;2024-02-26T08:52:08;10.40;99.90
34460;DHT22;20704;51.260;22.558;2024-02-26T08:54:11;10.60;99.90
34460;DHT22;20704;51.260;22.558;2024-02-26T08:56:13;10.80;1.00
34460;DHT22;20704;51.260;22.558;2024-02-26T08:58:20;11.20;99.90
34460;DHT22;20704;51.260;22.558;2024-02-26T09:02:26;12.30;1.00
34460;DHT22;20704;51.260;22.558;2024-02-26T09:04:28;12.80;99.90
34460;DHT22;20704;51.260;22.558;2024-02-26T09:06:31;13.10;99.90
34460;DHT22;20704;51.260;22.558;2024-02-26T09:08:33;13.00;99.90
34460;DHT22;20704;51.260;22.558;2024-02-26T09:10:38;12.70;70.40
34460;DHT22;20704;51.260;22.558;2024-02-26T09:12:41;12.60;1.00
34460;DHT22;20704;51.260;22.558;2024-02-26T09:14:43;13.20;10.10
34460;DHT22;20704;51.260;22.558;2024-02-26T09:16:46;13.80;1.00
34460;DHT22;20704;51.260;22.558;2024-02-26T09:18:50;14.10;99.90
34460;DHT22;20704;51.260;22.558;2024-02-26T09:20:53;14.50;99.90
34460;DHT22;20704;51.260;22.558;2024-02-26T09:22:55;14.30;99.90
34460;DHT22;20704;51.260;22.558;2024-02-26T09:24:57;13.70;99.90
34460;DHT22;20704;51.260;22.558;2024-02-26T09:27:00;13.20;99.90
34460;DHT22;20704;51.260;22.558;2024-02-26T09:29:02;13.10;99.90
34460;DHT22;20704;51.260;22.558;2024-02-26T09:31:06;13.20;99.90
34460;DHT22;20704;51.260;22.558;2024-02-26T09:33:08;12.90;99.90
34460;DHT22;20704;51.260;22.558;2024-02-26T09:35:11;12.80;99.90
34460;DHT22;20704;51.260;22.558;2024-02-26T09:37:15;12.70;1.00
34460;DHT22;20704;51.260;22.558;2024-02-26T09:39:23;12.50;1.00
34460;DHT22;20704;51.260;22.558;2024-02-26T09:41:28;12.40;16.80
34460;DHT22;20704;51.260;22.558;2024-02-26T09:43:35;12.30;91.00
34460;DHT22;20704;51.260;22.558;2024-02-26T09:45:41;12.30;99.90
34460;DHT22;20704;51.260;22.558;2024-02-26T09:47:44;12.50;99.90
34460;DHT22;20704;51.260;22.558;2024-02-26T09:49:48;11.30;99.90
34460;DHT22;20704;51.260;22.558;2024-02-26T09:51:52;12.40;99.90
34460;DHT22;20704;51.260;22.558;2024-02-26T09:53:59;12.30;99.90
34460;DHT22;20704;51.260;22.558;2024-02-26T09:56:07;12.20;99.90
34460;DHT22;20704;51.260;22.558;2024-02-26T09:58:10;12.10;1.00
34460;DHT22;20704;51.260;22.558;2024-02-26T10:00:21;12.10;99.90
34460;DHT22;20704;51.260;22.558;2024-02-26T10:02:23;12.00;99.90
34460;DHT22;20704;51.260;22.558;2024-02-26T10:04:27;12.00;99.90
34460;DHT22;20704;51.260;22.558;2024-02-26T10:06:29;12.10;1.00
34460;DHT22;20704;51.260;22.558;2024-02-26T10:08:32;12.10;99.90
34460;DHT22;20704;51.260;22.558;2024-02-26T10:10:36;12.10;99.90
34460;DHT22;20704;51.260;22.558;2024-02-26T10:14:42;12.10;47.20
34460;DHT22;20704;51.260;22.558;2024-02-26T10:16:45;12.10;1.00
34460;DHT22;20704;51.260;22.558;2024-02-26T10:21:01;12.00;99.90
34460;DHT22;20704;51.260;22.558;2024-02-26T10:23:04;11.90;1.00
34460;DHT22;20704;51.260;22.558;2024-02-26T10:25:07;11.90;1.00
34460;DHT22;20704;51.260;22.558;2024-02-26T10:27:10;11.90;20.40
34460;DHT22;20704;51.260;22.558;2024-02-26T10:29:12;12.10;17.80
34460;DHT22;20704;51.260;22.558;2024-02-26T10:31:15;12.10;1.00
34460;DHT22;20704;51.260;22.558;2024-02-26T10:33:18;12.10;99.90
34460;DHT22;20704;51.260;22.558;2024-02-26T10:37:23;12.30;99.90
34460;DHT22;20704;51.260;22.558;2024-02-26T10:39:30;12.50;99.90
34460;DHT22;20704;51.260;22.558;2024-02-26T10:41:33;12.70;99.90
34460;DHT22;20704;51.260;22.558;2024-02-26T10:43:36;12.90;99.90
34460;DHT22;20704;51.260;22.558;2024-02-26T10:45:39;12.80;12.60
34460;DHT22;20704;51.260;22.558;2024-02-26T10:47:44;13.10;1.00
34460;DHT22;20704;51.260;22.558;2024-02-26T10:49:48;13.70;1.00
34460;DHT22;20704;51.260;22.558;2024-02-26T10:51:55;13.50;1.00
34460;DHT22;20704;51.260;22.558;2024-02-26T10:53:59;13.70;99.90
34460;DHT22;20704;51.260;22.558;2024-02-26T10:56:06;13.90;99.90
34460;DHT22;20704;51.260;22.558;2024-02-26T10:58:10;13.90;99.90
34460;DHT22;20704;51.260;22.558;2024-02-26T11:00:14;13.90;99.90
34460;DHT22;20704;51.260;22.558;2024-02-26T11:02:18;13.70;99.90
34460;DHT22;20704;51.260;22.558;2024-02-26T11:04:20;13.60;99.90
34460;DHT22;20704;51.260;22.558;2024-02-26T11:06:26;13.30;99.90
34460;DHT22;20704;51.260;22.558;2024-02-26T11:08:29;13.40;99.90
34460;DHT22;20704;51.260;22.558;2024-02-26T11:12:36;13.30;1.00
34460;DHT22;20704;51.260;22.558;2024-02-26T11:14:40;13.30;99.90
34460;DHT22;20704;51.260;22.558;2024-02-26T11:16:45;13.50;99.90
34460;DHT22;20704;51.260;22.558;2024-02-26T11:18:48;13.80;99.90
34460;DHT22;20704;51.260;22.558;2024-02-26T11:20:52;13.90;99.90
34460;DHT22;20704;51.260;22.558;2024-02-26T11:22:57;13.90;99.90
34460;DHT22;20704;51.260;22.558;2024-02-26T11:25:00;13.80;99.90
34460;DHT22;20704;51.260;22.558;2024-02-26T11:27:05;14.10;99.90
34460;DHT22;20704;51.260;22.558;2024-02-26T11:29:09;13.80;99.90
34460;DHT22;20704;51.260;22.558;2024-02-26T11:31:13;13.90;99.90
34460;DHT22;20704;51.260;22.558;2024-02-26T11:33:16;13.90;99.90
34460;DHT22;20704;51.260;22.558;2024-02-26T11:35:19;14.10;99.90
34460;DHT22;20704;51.260;22.558;2024-02-26T11:37:22;14.30;99.90
34460;DHT22;20704;51.260;22.558;2024-02-26T11:39:25;14.10;99.90
34460;DHT22;20704;51.260;22.558;2024-02-26T11:41:29;14.10;99.90
34460;DHT22;20704;51.260;22.558;2024-02-26T11:45:54;14.00;99.90
34460;DHT22;20704;51.260;22.558;2024-02-26T11:48:01;14.00;99.90
34460;DHT22;20704;51.260;22.558;2024-02-26T11:50:33;14.50;99.90
34460;DHT22;20704;51.260;22.558;2024-02-26T11:52:36;14.20;99.90
34460;DHT22;20704;51.260;22.558;2024-02-26T11:54:52;14.20;80.90
34460;DHT22;20704;51.260;22.558;2024-02-26T11:56:58;14.20;68.00
34460;DHT22;20704;51.260;22.558;2024-02-26T11:59:10;14.30;41.40
34460;DHT22;20704;51.260;22.558;2024-02-26T12:03:39;14.30;1.80
34460;DHT22;20704;51.260;22.558;2024-02-26T12:05:42;14.30;1.00
34460;DHT22;20704;51.260;22.558;2024-02-26T12:07:45;14.30;1.00
34460;DHT22;20704;51.260;22.558;2024-02-26T12:09:48;14.20;1.00
34460;DHT22;20704;51.260;22.558;2024-02-26T12:11:50;14.20;1.00
34460;DHT22;20704;51.260;22.558;2024-02-26T12:13:53;14.20;1.00
34460;DHT22;20704;51.260;22.558;2024-02-26T12:15:57;14.20;1.00
34460;DHT22;20704;51.260;22.558;2024-02-26T12:18:03;14.20;1.00
34460;DHT22;20704;51.260;22.558;2024-02-26T12:20:12;14.20;1.00
34460;DHT22;20704;51.260;22.558;2024-02-26T12:22:15;14.20;1.00
34460;DHT22;20704;51.260;22.558;2024-02-26T12:24:18;14.20;1.00
34460;DHT22;20704;51.260;22.558;2024-02-26T12:26:22;14.20;1.00
34460;DHT22;20704;51.260;22.558;2024-02-26T12:28:30;14.20;1.00
34460;DHT22;20704;51.260;22.558;2024-02-26T12:30:33;14.20;1.00
34460;DHT22;20704;51.260;22.558;2024-02-26T12:32:36;14.20;1.00
34460;DHT22;20704;51.260;22.558;2024-02-26T12:36:42;14.20;1.00
34460;DHT22;20704;51.260;22.558;2024-02-26T12:38:45;14.20;1.00
34460;DHT22;20704;51.260;22.558;2024-02-26T12:40:47;14.20;1.00
34460;DHT22;20704;51.260;22.558;2024-02-26T12:42:53;14.20;1.00
34460;DHT22;20704;51.260;22.558;2024-02-26T12:44:57;14.30;1.00
34460;DHT22;20704;51.260;22.558;2024-02-26T12:47:00;14.30;1.00
34460;DHT22;20704;51.260;22.558;2024-02-26T12:49:05;14.40;1.00
34460;DHT22;20704;51.260;22.558;2024-02-26T12:51:09;14.50;1.00
34460;DHT22;20704;51.260;22.558;2024-02-26T12:53:12;14.50;1.00
34460;DHT22;20704;51.260;22.558;2024-02-26T12:55:18;14.60;1.00
34460;DHT22;20704;51.260;22.558;2024-02-26T12:57:21;14.70;1.00
34460;DHT22;20704;51.260;22.558;2024-02-26T12:59:24;14.70;1.00
34460;DHT22;20704;51.260;22.558;2024-02-26T13:01:27;14.70;1.00
34460;DHT22;20704;51.260;22.558;2024-02-26T13:03:31;14.70;1.00
34460;DHT22;20704;51.260;22.558;2024-02-26T13:05:34;14.80;1.00
34460;DHT22;20704;51.260;22.558;2024-02-26T13:07:43;14.80;1.00
34460;DHT22;20704;51.260;22.558;2024-02-26T13:09:46;14.80;1.00
34460;DHT22;20704;51.260;22.558;2024-02-26T13:11:55;14.90;1.00
34460;DHT22;20704;51.260;22.558;2024-02-26T13:13:57;15.00;99.90
34460;DHT22;20704;51.260;22.558;2024-02-26T13:16:05;14.90;99.90
34460;DHT22;20704;51.260;22.558;2024-02-26T13:18:10;15.00;99.90
34460;DHT22;20704;51.260;22.558;2024-02-26T13:20:29;15.00;99.90
34460;DHT22;20704;51.260;22.558;2024-02-26T13:22:32;14.90;99.90
34460;DHT22;20704;51.260;22.558;2024-02-26T13:24:36;14.90;99.90
34460;DHT22;20704;51.260;22.558;2024-02-26T13:26:39;14.80;1.00
34460;DHT22;20704;51.260;22.558;2024-02-26T13:28:41;14.70;99.90
34460;DHT22;20704;51.260;22.558;2024-02-26T13:30:57;14.70;99.90
34460;DHT22;20704;51.260;22.558;2024-02-26T13:33:10;14.70;99.90
34460;DHT22;20704;51.260;22.558;2024-02-26T13:35:13;14.60;99.90
34460;DHT22;20704;51.260;22.558;2024-02-26T13:37:16;14.60;99.90
34460;DHT22;20704;51.260;22.558;2024-02-26T13:39:25;14.70;99.90
34460;DHT22;20704;51.260;22.558;2024-02-26T13:41:28;14.70;99.90
34460;DHT22;20704;51.260;22.558;2024-02-26T13:43:30;14.60;99.90
34460;DHT22;20704;51.260;22.558;2024-02-26T13:45:37;14.50;99.90
34460;DHT22;20704;51.260;22.558;2024-02-26T13:47:40;14.50;99.90
34460;DHT22;20704;51.260;22.558;2024-02-26T13:49:44;14.50;99.90
34460;DHT22;20704;51.260;22.558;2024-02-26T13:51:46;14.50;99.90
34460;DHT22;20704;51.260;22.558;2024-02-26T13:53:49;14.50;1.00
34460;DHT22;20704;51.260;22.558;2024-02-26T13:55:51;14.50;99.90
34460;DHT22;20704;51.260;22.558;2024-02-26T13:57:54;14.60;99.90
34460;DHT22;20704;51.260;22.558;2024-02-26T13:59:57;14.60;99.90
34460;DHT22;20704;51.260;22.558;2024-02-26T14:01:59;14.60;99.90
34460;DHT22;20704;51.260;22.558;2024-02-26T14:04:02;14.60;99.90
34460;DHT22;20704;51.260;22.558;2024-02-26T14:06:06;14.50;99.90
34460;DHT22;20704;51.260;22.558;2024-02-26T14:08:09;14.50;99.90
34460;DHT22;20704;51.260;22.558;2024-02-26T14:10:12;14.50;99.90
34460;DHT22;20704;51.260;22.558;2024-02-26T14:12:14;14.40;1.00
34460;DHT22;20704;51.260;22.558;2024-02-26T14:14:17;14.40;99.90